Time;durP1;ratioP1;P1;durP2;ratioP2;P2;SDS_P1;SDS_P2;PMS_P1;PMS_P2;Temp;Humidity;BMP_temperature;BMP_pressure;BME280_temperature;BME280_humidity;BME280_pressure;Samples;Min_cycle;Max_cycle;Signal;HPM_P1;HPM_P2
2022/03/27 00:00:15;;;;;;;54.35;17.58;;;;;;;;;;5034773;28;20036;-79
2022/03/27 00:02:41;;;;;;;49.92;15.73;;;;;;;;;;5018477;28;20032;-78
2022/03/27 00:05:08;;;;;;;47.60;16.25;;;;;;;;;;5034270;28;20025;-78
2022/03/27 00:07:34;;;;;;;44.28;16.38;;;;;;;;;;5018057;28;20090;-78
2022/03/27 00:09:59;;;;;;;49.60;15.48;;;;;;;;;;5038190;28;20025;-78
2022/03/27 00:12:25;;;;;;;44.42;15.93;;;;;;;;;;5041896;28;20455;-78
2022/03/27 00:14:50;;;;;;;48.03;16.88;;;;;;;;;;5035833;28;20042;-80
2022/03/27 00:17:16;;;;;;;60.53;16.52;;;;;;;;;;5017885;28;20446;-79
2022/03/27 00:19:41;;;;;;;55.35;18.30;;;;;;;;;;5035317;28;20029;-79
2022/03/27 00:22:07;;;;;;;53.03;17.33;;;;;;;;;;5018060;28;20040;-78
2022/03/27 00:24:32;;;;;;;58.35;19.52;;;;;;;;;;5017851;28;20124;-79
2022/03/27 00:26:58;;;;;;;53.97;19.45;;;;;;;;;;5035202;28;20030;-78
2022/03/27 00:29:23;;;;;;;63.40;21.38;;;;;;;;;;5001235;28;20065;-79
2022/03/27 00:31:49;;;;;;;57.17;20.77;;;;;;;;;;5027229;28;20037;-79
2022/03/27 00:34:14;;;;;;;52.28;19.90;;;;;;;;;;5001111;28;20481;-79
2022/03/27 00:36:40;;;;;;;63.83;19.95;;;;;;;;;;5017264;28;20415;-78
2022/03/27 00:39:05;;;;;;;59.63;20.27;;;;;;;;;;5033978;28;20745;-78
2022/03/27 00:41:31;;;;;;;58.67;21.65;;;;;;;;;;5017186;28;20060;-78
2022/03/27 00:43:56;;;;;;;65.93;20.83;;;;;;;;;;5017238;28;20060;-79
2022/03/27 00:46:22;;;;;;;62.20;19.73;;;;;;;;;;5035124;28;20462;-79
2022/03/27 00:48:48;;;;;;;61.92;22.63;;;;;;;;;;5034594;28;20061;-78
2022/03/27 00:51:13;;;;;;;63.30;21.73;;;;;;;;;;5018350;28;20068;-79
2022/03/27 00:53:39;;;;;;;62.17;22.60;;;;;;;;;;5041910;28;20037;-80
2022/03/27 00:56:04;;;;;;;59.50;21.45;;;;;;;;;;5034489;28;20029;-79
2022/03/27 00:58:30;;;;;;;53.25;19.67;;;;;;;;;;5017032;28;20033;-79
2022/03/27 01:01:01;;;;;;;56.10;19.38;;;;;;;;;;5034491;28;20029;-79
2022/03/27 01:03:27;;;;;;;48.08;16.52;;;;;;;;;;5034415;28;20339;-78
2022/03/27 01:05:53;;;;;;;47.65;17.00;;;;;;;;;;5034555;28;20021;-79
2022/03/27 01:09:35;;;;;;;49.15;16.73;;;;;;;;;;5034505;28;20017;-79
2022/03/27 01:11:13;;;;;;;45.40;16.75;;;;;;;;;;5019958;28;20033;-79
2022/03/27 01:13:43;;;;;;;46.85;15.95;;;;;;;;;;5009842;28;20010;-78
2022/03/27 01:16:16;;;;;;;45.22;15.25;;;;;;;;;;5034259;28;20050;-79
2022/03/27 01:18:42;;;;;;;47.60;15.27;;;;;;;;;;5000311;28;20087;-78
2022/03/27 01:21:08;;;;;;;39.05;14.25;;;;;;;;;;5034110;28;20127;-78
2022/03/27 01:23:33;;;;;;;43.22;14.55;;;;;;;;;;5000308;28;20107;-78
2022/03/27 01:25:58;;;;;;;45.03;16.70;;;;;;;;;;5016622;28;20021;-78
2022/03/27 01:28:24;;;;;;;49.90;16.20;;;;;;;;;;5034255;28;20025;-78
2022/03/27 01:30:50;;;;;;;45.47;14.80;;;;;;;;;;5034187;28;20029;-78
2022/03/27 01:33:15;;;;;;;42.15;14.55;;;;;;;;;;5021766;28;20363;-78
2022/03/27 01:35:41;;;;;;;38.35;13.85;;;;;;;;;;5023999;28;20033;-79
2022/03/27 01:38:06;;;;;;;39.65;14.55;;;;;;;;;;5033152;28;20025;-78
2022/03/27 01:40:32;;;;;;;39.58;13.85;;;;;;;;;;5033948;28;20032;-78
2022/03/27 01:42:58;;;;;;;44.38;13.70;;;;;;;;;;5033004;28;20037;-78
2022/03/27 01:45:23;;;;;;;33.63;13.43;;;;;;;;;;5032771;28;20111;-80
2022/03/27 01:47:49;;;;;;;42.90;13.05;;;;;;;;;;5016420;28;20443;-78
2022/03/27 01:50:15;;;;;;;39.97;14.50;;;;;;;;;;5000004;28;20462;-79
2022/03/27 01:52:40;;;;;;;40.25;12.95;;;;;;;;;;4999973;28;20041;-80
2022/03/27 01:55:07;;;;;;;35.30;13.07;;;;;;;;;;5022377;28;20029;-78
2022/03/27 01:57:32;;;;;;;49.33;13.48;;;;;;;;;;5033912;28;20025;-78
2022/03/27 01:59:58;;;;;;;38.22;13.20;;;;;;;;;;5016582;28;20033;-78
2022/03/27 02:02:24;;;;;;;36.78;12.88;;;;;;;;;;5015943;28;20036;-78
2022/03/27 02:04:51;;;;;;;34.47;12.48;;;;;;;;;;5000379;28;20029;-78
2022/03/27 02:07:17;;;;;;;33.85;12.77;;;;;;;;;;5017883;28;20037;-80
2022/03/27 02:09:42;;;;;;;43.55;14.15;;;;;;;;;;5036621;28;20026;-79
2022/03/27 02:12:08;;;;;;;29.75;12.13;;;;;;;;;;5020083;28;20065;-79
2022/03/27 02:14:33;;;;;;;36.65;12.82;;;;;;;;;;5021074;28;20061;-77
2022/03/27 02:16:59;;;;;;;37.13;13.90;;;;;;;;;;5027041;28;20025;-78
2022/03/27 02:19:24;;;;;;;39.47;13.15;;;;;;;;;;5019956;28;20453;-78
2022/03/27 02:21:50;;;;;;;35.28;13.13;;;;;;;;;;5037515;28;20033;-78
2022/03/27 02:24:16;;;;;;;29.90;11.65;;;;;;;;;;5037509;28;20123;-78
2022/03/27 02:26:45;;;;;;;37.20;13.18;;;;;;;;;;5020015;28;20129;-78
2022/03/27 02:29:14;;;;;;;36.22;12.60;;;;;;;;;;5019931;28;20036;-79
2022/03/27 02:31:40;;;;;;;36.00;11.88;;;;;;;;;;5019516;28;20083;-79
2022/03/27 02:34:05;;;;;;;36.90;13.25;;;;;;;;;;5037584;28;20026;-78
2022/03/27 02:36:31;;;;;;;32.08;13.32;;;;;;;;;;5026619;28;20034;-77
2022/03/27 02:38:57;;;;;;;35.78;12.80;;;;;;;;;;5004165;28;20040;-79
2022/03/27 02:41:22;;;;;;;42.60;12.65;;;;;;;;;;5019439;28;20034;-79
2022/03/27 02:43:47;;;;;;;42.13;13.32;;;;;;;;;;5019779;28;20030;-79
2022/03/27 02:46:13;;;;;;;38.30;12.77;;;;;;;;;;5035520;28;20116;-79
2022/03/27 02:48:39;;;;;;;36.72;13.52;;;;;;;;;;5019424;28;20034;-79
2022/03/27 02:51:05;;;;;;;41.67;14.02;;;;;;;;;;5037047;28;20029;-79
2022/03/27 02:53:30;;;;;;;43.88;14.20;;;;;;;;;;5019611;28;20510;-79
2022/03/27 02:55:56;;;;;;;39.47;14.10;;;;;;;;;;5003402;28;20168;-80
2022/03/27 02:58:21;;;;;;;43.53;13.07;;;;;;;;;;5044271;28;20119;-79
2022/03/27 03:00:47;;;;;;;41.90;13.57;;;;;;;;;;5019173;28;20061;-78
2022/03/27 03:03:13;;;;;;;36.72;12.73;;;;;;;;;;5019188;28;20427;-77
2022/03/27 03:05:39;;;;;;;39.88;12.85;;;;;;;;;;5003169;28;20041;-79
2022/03/27 03:08:06;;;;;;;36.35;12.15;;;;;;;;;;5036740;28;20037;-78
2022/03/27 03:10:33;;;;;;;33.85;12.00;;;;;;;;;;5019239;28;20040;-79
2022/03/27 03:12:58;;;;;;;45.55;14.55;;;;;;;;;;5036657;28;20033;-78
2022/03/27 03:15:24;;;;;;;50.08;13.82;;;;;;;;;;5022931;28;20376;-78
2022/03/27 03:17:50;;;;;;;37.05;12.40;;;;;;;;;;5025617;28;20029;-79
2022/03/27 03:20:16;;;;;;;34.05;12.95;;;;;;;;;;5038576;28;20430;-79
2022/03/27 03:22:41;;;;;;;41.00;13.68;;;;;;;;;;5035227;28;20362;-78
2022/03/27 03:25:08;;;;;;;36.10;13.00;;;;;;;;;;5036378;28;20025;-79
2022/03/27 03:27:33;;;;;;;37.25;13.85;;;;;;;;;;5034857;28;20526;-79
2022/03/27 03:29:59;;;;;;;38.63;13.25;;;;;;;;;;5035338;28;20136;-79
2022/03/27 03:32:25;;;;;;;39.33;14.25;;;;;;;;;;5035160;28;20541;-79
2022/03/27 03:34:51;;;;;;;40.67;13.45;;;;;;;;;;5036204;28;20372;-78
2022/03/27 03:37:17;;;;;;;32.92;12.90;;;;;;;;;;5034973;28;20411;-79
2022/03/27 03:39:43;;;;;;;35.08;13.13;;;;;;;;;;5043781;28;20044;-78
2022/03/27 03:42:08;;;;;;;39.28;13.70;;;;;;;;;;5035828;28;20033;-79
2022/03/27 03:44:34;;;;;;;35.85;13.50;;;;;;;;;;5036112;28;20061;-79
2022/03/27 03:47:00;;;;;;;41.15;13.15;;;;;;;;;;5036462;28;20044;-79
2022/03/27 03:49:25;;;;;;;38.78;13.30;;;;;;;;;;5035955;28;20478;-78
2022/03/27 03:51:51;;;;;;;40.22;12.57;;;;;;;;;;5034737;28;20029;-78
2022/03/27 03:54:17;;;;;;;39.92;13.32;;;;;;;;;;5035949;28;20036;-79
2022/03/27 03:56:43;;;;;;;36.47;12.07;;;;;;;;;;5018201;28;20029;-79
2022/03/27 03:59:09;;;;;;;46.53;12.73;;;;;;;;;;5025851;28;20030;-79
2022/03/27 04:01:34;;;;;;;36.78;12.65;;;;;;;;;;5024973;28;20034;-78
2022/03/27 04:04:00;;;;;;;26.83;11.80;;;;;;;;;;5035743;28;20697;-78
2022/03/27 04:06:26;;;;;;;34.03;12.85;;;;;;;;;;5035635;28;20021;-79
2022/03/27 04:08:51;;;;;;;40.17;13.50;;;;;;;;;;5036218;28;20034;-79
2022/03/27 04:11:17;;;;;;;34.85;12.80;;;;;;;;;;5035240;28;20470;-79
2022/03/27 04:13:45;;;;;;;34.60;13.27;;;;;;;;;;5035527;28;20035;-80
2022/03/27 04:16:12;;;;;;;41.90;13.43;;;;;;;;;;5035502;28;20147;-79
2022/03/27 04:18:37;;;;;;;35.10;13.30;;;;;;;;;;5017777;28;20086;-78
2022/03/27 04:21:03;;;;;;;38.60;14.48;;;;;;;;;;5043416;28;20021;-78
2022/03/27 04:23:28;;;;;;;43.75;15.00;;;;;;;;;;5017720;28;20108;-78
2022/03/27 04:25:54;;;;;;;43.25;15.23;;;;;;;;;;5034995;28;20443;-79
2022/03/27 04:28:19;;;;;;;45.35;13.63;;;;;;;;;;5001212;28;20065;-79
2022/03/27 04:30:45;;;;;;;50.67;14.82;;;;;;;;;;5033394;28;20037;-78
2022/03/27 04:33:10;;;;;;;41.88;14.70;;;;;;;;;;5035671;28;20025;-79
2022/03/27 04:35:36;;;;;;;37.15;13.20;;;;;;;;;;5017571;28;20025;-78
2022/03/27 04:38:01;;;;;;;43.17;13.73;;;;;;;;;;5034987;28;20025;-79
2022/03/27 04:40:27;;;;;;;40.50;13.80;;;;;;;;;;5020723;28;20043;-79
2022/03/27 04:42:52;;;;;;;46.45;15.52;;;;;;;;;;5042661;28;20103;-78
2022/03/27 04:45:18;;;;;;;44.67;14.23;;;;;;;;;;5017425;28;20032;-78
2022/03/27 04:47:43;;;;;;;39.10;14.40;;;;;;;;;;5017477;28;20116;-78
2022/03/27 04:50:09;;;;;;;45.80;15.43;;;;;;;;;;5034971;28;20406;-78
2022/03/27 04:52:36;;;;;;;42.45;14.63;;;;;;;;;;5017450;28;20045;-79
2022/03/27 04:55:01;;;;;;;41.70;14.43;;;;;;;;;;5034489;28;20140;-78
2022/03/27 04:57:38;;;;;;;41.92;15.10;;;;;;;;;;5017209;28;20526;-80
2022/03/27 05:00:11;;;;;;;40.80;14.30;;;;;;;;;;5017160;28;20061;-79
2022/03/27 05:02:40;;;;;;;38.17;14.45;;;;;;;;;;5012130;28;20469;-77
2022/03/27 05:05:07;;;;;;;40.90;15.07;;;;;;;;;;5017849;28;20033;-78
2022/03/27 05:07:35;;;;;;;34.35;14.80;;;;;;;;;;5001336;28;20336;-79
2022/03/27 05:10:00;;;;;;;47.78;16.30;;;;;;;;;;5000719;28;20040;-79
2022/03/27 05:12:26;;;;;;;41.45;14.18;;;;;;;;;;5017114;28;20366;-78
2022/03/27 05:14:51;;;;;;;45.88;15.88;;;;;;;;;;5034232;28;20084;-78
2022/03/27 05:17:17;;;;;;;45.30;15.52;;;;;;;;;;5034309;28;20038;-79
2022/03/27 05:19:42;;;;;;;39.45;14.65;;;;;;;;;;5016861;28;20029;-78
2022/03/27 05:22:08;;;;;;;38.38;14.23;;;;;;;;;;5037834;28;20034;-79
2022/03/27 05:24:34;;;;;;;35.70;14.45;;;;;;;;;;5022226;28;20145;-78
2022/03/27 05:26:59;;;;;;;38.75;13.93;;;;;;;;;;5016685;28;20036;-79
2022/03/27 05:29:25;;;;;;;42.05;14.60;;;;;;;;;;5024988;28;20034;-79
2022/03/27 05:31:51;;;;;;;35.38;13.60;;;;;;;;;;5016499;28;20029;-78
2022/03/27 05:34:17;;;;;;;45.83;13.60;;;;;;;;;;5032164;28;20041;-79
2022/03/27 05:36:43;;;;;;;35.80;14.15;;;;;;;;;;5032339;28;20520;-79
2022/03/27 05:39:09;;;;;;;41.72;15.73;;;;;;;;;;5014919;28;20029;-80
2022/03/27 05:41:34;;;;;;;39.08;15.52;;;;;;;;;;5042842;28;20128;-79
2022/03/27 05:44:00;;;;;;;42.17;16.08;;;;;;;;;;5048395;28;20515;-79
2022/03/27 05:46:25;;;;;;;50.13;16.63;;;;;;;;;;5047695;28;20025;-77
2022/03/27 05:48:51;;;;;;;48.17;16.35;;;;;;;;;;4998139;28;20112;-77
2022/03/27 05:51:16;;;;;;;49.42;17.88;;;;;;;;;;5014516;28;20418;-77
2022/03/27 05:53:43;;;;;;;58.42;20.52;;;;;;;;;;5030789;28;20087;-78
2022/03/27 05:56:09;;;;;;;60.35;19.77;;;;;;;;;;5030846;28;20027;-77
2022/03/27 05:58:35;;;;;;;53.75;20.30;;;;;;;;;;5029987;28;20021;-79
2022/03/27 06:01:00;;;;;;;64.50;21.10;;;;;;;;;;5013992;28;20394;-80
2022/03/27 06:03:26;;;;;;;50.53;20.33;;;;;;;;;;5024690;28;20017;-78
2022/03/27 06:05:52;;;;;;;52.67;20.60;;;;;;;;;;5031918;28;20426;-79
2022/03/27 06:08:18;;;;;;;53.25;20.75;;;;;;;;;;5032372;28;20033;-85
2022/03/27 06:10:43;;;;;;;71.63;25.67;;;;;;;;;;5014599;28;20455;-82
2022/03/27 06:13:11;;;;;;;62.65;21.80;;;;;;;;;;5015141;28;20084;-82
2022/03/27 06:15:37;;;;;;;62.33;24.83;;;;;;;;;;5009099;28;20049;-85
2022/03/27 06:18:03;;;;;;;71.18;23.58;;;;;;;;;;5019473;28;20033;-79
2022/03/27 06:20:30;;;;;;;54.38;21.48;;;;;;;;;;5053557;28;20029;-78
2022/03/27 06:22:56;;;;;;;48.65;18.27;;;;;;;;;;5063192;28;20178;-77
2022/03/27 06:25:24;;;;;;;46.72;19.50;;;;;;;;;;5035952;28;20086;-77
2022/03/27 06:27:49;;;;;;;61.95;20.45;;;;;;;;;;5035973;28;20032;-79
2022/03/27 06:30:16;;;;;;;46.05;17.35;;;;;;;;;;5019744;28;20025;-79
2022/03/27 06:32:42;;;;;;;46.00;16.23;;;;;;;;;;5035959;28;20033;-78
2022/03/27 06:35:09;;;;;;;44.83;19.50;;;;;;;;;;5053643;28;20036;-79
2022/03/27 06:37:35;;;;;;;37.40;16.65;;;;;;;;;;5019237;28;20036;-78
2022/03/27 06:40:02;;;;;;;41.08;16.90;;;;;;;;;;5040405;28;20076;-78
2022/03/27 06:42:27;;;;;;;39.25;18.65;;;;;;;;;;5046300;28;20036;-80
2022/03/27 06:44:54;;;;;;;44.90;17.58;;;;;;;;;;5019822;28;20025;-78
2022/03/27 06:47:19;;;;;;;40.72;16.25;;;;;;;;;;5035773;28;20025;-79
2022/03/27 06:49:45;;;;;;;48.28;17.67;;;;;;;;;;5019063;28;20450;-78
2022/03/27 06:52:11;;;;;;;46.97;18.83;;;;;;;;;;5035318;28;20052;-79
2022/03/27 06:54:36;;;;;;;45.42;17.90;;;;;;;;;;5039046;28;20014;-78
2022/03/27 06:57:02;;;;;;;40.47;18.17;;;;;;;;;;5056764;28;20438;-79
2022/03/27 06:59:28;;;;;;;42.55;17.38;;;;;;;;;;5039084;28;20021;-78
2022/03/27 07:04:37;;;;;;;42.90;16.45;;;;;;;;;;5040620;28;20090;-80
2022/03/27 07:07:03;;;;;;;37.60;17.35;;;;;;;;;;5036823;28;20405;-83
2022/03/27 07:09:28;;;;;;;45.20;19.92;;;;;;;;;;5023351;28;20029;-84
2022/03/27 07:11:54;;;;;;;36.20;18.00;;;;;;;;;;5053567;28;20086;-84
2022/03/27 07:14:19;;;;;;;39.70;18.05;;;;;;;;;;5036047;28;20024;-82
2022/03/27 07:16:45;;;;;;;55.45;18.65;;;;;;;;;;5036168;28;20134;-83
2022/03/27 07:19:11;;;;;;;37.70;17.65;;;;;;;;;;5036038;28;20021;-84
2022/03/27 07:21:40;;;;;;;34.67;17.85;;;;;;;;;;5021636;28;20032;-82
2022/03/27 07:24:06;;;;;;;35.63;17.95;;;;;;;;;;5054607;28;20106;-84
2022/03/27 07:26:31;;;;;;;37.17;17.25;;;;;;;;;;5054227;28;20086;-83
2022/03/27 07:28:57;;;;;;;35.80;17.45;;;;;;;;;;5054304;28;20413;-83
2022/03/27 07:31:23;;;;;;;42.33;18.48;;;;;;;;;;5054404;28;20035;-85
2022/03/27 07:33:49;;;;;;;41.08;17.55;;;;;;;;;;5020717;28;20053;-87
2022/03/27 07:36:14;;;;;;;36.30;17.17;;;;;;;;;;5036051;28;20446;-81
2022/03/27 07:38:40;;;;;;;36.60;17.98;;;;;;;;;;5054166;28;20533;-79
2022/03/27 07:41:05;;;;;;;44.10;18.95;;;;;;;;;;5037928;28;20033;-80
2022/03/27 07:43:32;;;;;;;51.90;22.40;;;;;;;;;;5021887;28;20111;-80
2022/03/27 07:45:58;;;;;;;53.97;21.00;;;;;;;;;;5055842;28;20025;-82
2022/03/27 07:48:23;;;;;;;41.88;20.05;;;;;;;;;;5055623;28;20032;-82
2022/03/27 07:50:54;;;;;;;60.60;22.67;;;;;;;;;;5055708;28;20036;-82
2022/03/27 07:53:20;;;;;;;54.20;21.60;;;;;;;;;;5054693;28;20025;-81
2022/03/27 07:55:45;;;;;;;47.45;20.48;;;;;;;;;;5021391;28;20037;-80
2022/03/27 07:58:11;;;;;;;49.80;22.23;;;;;;;;;;5055482;28;20029;-82
2022/03/27 08:00:36;;;;;;;43.40;22.17;;;;;;;;;;5055077;28;20032;-78
2022/03/27 08:03:02;;;;;;;47.90;20.58;;;;;;;;;;5055543;28;20093;-78
2022/03/27 08:05:28;;;;;;;49.30;22.50;;;;;;;;;;5053473;28;20029;-80
2022/03/27 08:07:53;;;;;;;49.55;22.10;;;;;;;;;;5037654;28;20450;-80
2022/03/27 08:10:19;;;;;;;51.45;20.58;;;;;;;;;;5038195;28;20029;-79
2022/03/27 08:12:46;;;;;;;43.70;20.50;;;;;;;;;;5054147;28;20474;-79
2022/03/27 08:15:11;;;;;;;40.40;19.35;;;;;;;;;;5054158;28;20355;-79
2022/03/27 08:17:37;;;;;;;47.70;20.23;;;;;;;;;;5020844;28;20040;-80
2022/03/27 08:20:04;;;;;;;57.50;19.98;;;;;;;;;;5027002;28;20075;-80
2022/03/27 08:22:30;;;;;;;43.38;19.15;;;;;;;;;;5037535;28;20063;-80
2022/03/27 08:24:55;;;;;;;47.70;21.23;;;;;;;;;;5021196;28;20040;-81
2022/03/27 08:27:21;;;;;;;54.95;21.15;;;;;;;;;;5037058;28;20090;-81
2022/03/27 08:29:47;;;;;;;52.63;20.95;;;;;;;;;;5053892;28;20079;-79
2022/03/27 08:32:14;;;;;;;51.72;25.20;;;;;;;;;;5036980;28;20079;-78
2022/03/27 08:34:41;;;;;;;62.95;21.67;;;;;;;;;;5020869;28;20029;-79
2022/03/27 08:37:08;;;;;;;48.10;19.25;;;;;;;;;;5020975;28;20120;-78
2022/03/27 08:39:34;;;;;;;54.63;22.70;;;;;;;;;;5044228;28;20036;-78
2022/03/27 08:41:59;;;;;;;68.63;31.27;;;;;;;;;;5055136;28;20065;-81
2022/03/27 08:44:26;;;;;;;62.22;22.13;;;;;;;;;;5020538;28;20044;-80
2022/03/27 08:46:53;;;;;;;51.88;20.35;;;;;;;;;;5054904;28;20178;-80
2022/03/27 08:49:24;;;;;;;54.33;23.27;;;;;;;;;;5054618;28;20036;-80
2022/03/27 08:52:08;;;;;;;53.05;20.73;;;;;;;;;;5054382;28;20033;-79
2022/03/27 08:54:46;;;;;;;45.70;20.23;;;;;;;;;;5054490;28;20033;-79
2022/03/27 08:57:24;;;;;;;65.70;26.10;;;;;;;;;;5036737;28;20025;-79
2022/03/27 08:59:53;;;;;;;55.72;23.08;;;;;;;;;;5044248;28;20033;-79
2022/03/27 09:02:25;;;;;;;50.92;21.92;;;;;;;;;;5036288;28;20020;-81
2022/03/27 09:04:54;;;;;;;55.90;21.70;;;;;;;;;;5036991;28;20029;-80
2022/03/27 09:07:29;;;;;;;;;;;;;;;;;;5054793;28;20052;-80
2022/03/27 09:09:55;;;;;;;53.17;20.98;;;;;;;;;;5054649;28;20397;-80
2022/03/27 09:12:21;;;;;;;49.88;19.42;;;;;;;;;;5053557;28;20033;-80
2022/03/27 09:14:46;;;;;;;55.35;20.85;;;;;;;;;;5034074;28;20078;-80
2022/03/27 09:17:13;;;;;;;60.03;25.40;;;;;;;;;;5019772;28;20040;-80
2022/03/27 09:19:40;;;;;;;61.70;24.23;;;;;;;;;;5025601;28;20063;-80
2022/03/27 09:22:21;;;;;;;74.95;23.98;;;;;;;;;;5016434;28;20033;-80
2022/03/27 09:24:59;;;;;;;73.55;19.88;;;;;;;;;;5018024;28;20048;-79
2022/03/27 09:27:34;;;;;;;66.95;18.88;;;;;;;;;;5000114;28;20029;-79
2022/03/27 09:30:06;;;;;;;53.42;17.23;;;;;;;;;;4999970;28;20033;-83
2022/03/27 09:32:35;;;;;;;52.80;21.23;;;;;;;;;;5001082;28;20095;-81
2022/03/27 09:35:08;;;;;;;63.95;30.50;;;;;;;;;;5000738;28;20071;-81
2022/03/27 09:37:35;;;;;;;77.90;30.60;;;;;;;;;;5040229;28;20040;-78
2022/03/27 09:40:03;;;;;;;69.47;19.48;;;;;;;;;;5034948;28;20075;-81
2022/03/27 09:42:28;;;;;;;65.00;20.30;;;;;;;;;;5033630;28;20025;-79
2022/03/27 09:45:17;;;;;;;61.53;24.52;;;;;;;;;;5015868;28;20026;-81
2022/03/27 09:47:44;;;;;;;52.83;25.07;;;;;;;;;;5025830;28;20046;-79
2022/03/27 09:50:30;;;;;;;64.40;31.02;;;;;;;;;;5016340;28;20083;-79
2022/03/27 09:53:19;;;;;;;53.13;18.75;;;;;;;;;;4999846;28;20102;-79
2022/03/27 09:55:45;;;;;;;53.33;20.17;;;;;;;;;;5017132;28;20021;-79
2022/03/27 09:58:12;;;;;;;56.25;18.58;;;;;;;;;;5006767;28;20487;-78
2022/03/27 10:00:38;;;;;;;59.00;18.08;;;;;;;;;;5033543;28;20060;-79
2022/03/27 10:03:10;;;;;;;40.95;17.55;;;;;;;;;;5033655;28;20080;-79
2022/03/27 10:05:36;;;;;;;53.15;19.42;;;;;;;;;;5033775;28;20067;-79
2022/03/27 10:08:02;;;;;;;39.17;17.50;;;;;;;;;;5033848;28;20061;-79
2022/03/27 10:10:28;;;;;;;46.70;19.10;;;;;;;;;;5033121;28;20033;-80
2022/03/27 10:12:55;;;;;;;38.05;14.82;;;;;;;;;;4999588;28;20041;-78
2022/03/27 10:15:22;;;;;;;49.53;17.27;;;;;;;;;;5023201;28;20045;-77
2022/03/27 10:18:14;;;;;;;36.75;14.88;;;;;;;;;;5060084;28;20025;-78
2022/03/27 10:20:39;;;;;;;46.40;14.65;;;;;;;;;;5033042;28;20124;-77
2022/03/27 10:23:18;;;;;;;48.53;15.32;;;;;;;;;;5035737;28;20063;-76
2022/03/27 10:25:59;;;;;;;42.60;15.60;;;;;;;;;;5035872;28;20090;-78
2022/03/27 10:28:25;;;;;;;50.58;17.92;;;;;;;;;;5055963;28;20026;-78
2022/03/27 10:30:51;;;;;;;40.97;16.48;;;;;;;;;;5057298;28;20091;-78
2022/03/27 10:33:17;;;;;;;59.00;17.98;;;;;;;;;;5040105;28;20025;-77
2022/03/27 10:35:58;;;;;;;62.75;17.92;;;;;;;;;;5011586;28;20132;-78
2022/03/27 10:38:45;;;;;;;43.75;15.60;;;;;;;;;;5043457;28;20052;-76
2022/03/27 10:41:29;;;;;;;42.15;17.63;;;;;;;;;;5039277;28;20033;-77
2022/03/27 10:44:37;;;;;;;41.58;16.65;;;;;;;;;;5026049;28;20037;-77
2022/03/27 10:47:14;;;;;;;42.53;17.52;;;;;;;;;;4996828;28;20067;-75
2022/03/27 10:49:41;;;;;;;33.20;14.50;;;;;;;;;;5057960;28;20037;-79
2022/03/27 10:52:07;;;;;;;35.03;13.57;;;;;;;;;;5059604;28;20037;-79
2022/03/27 10:54:56;;;;;;;37.97;13.93;;;;;;;;;;5026103;28;20028;-76
2022/03/27 10:57:32;;;;;;;38.90;13.07;;;;;;;;;;5060045;28;20028;-78
2022/03/27 10:59:58;;;;;;;30.35;11.57;;;;;;;;;;5038904;28;20331;-76
2022/03/27 11:02:45;;;;;;;33.33;12.73;;;;;;;;;;5022623;28;20029;-77
2022/03/27 11:05:29;;;;;;;26.38;12.48;;;;;;;;;;5052991;28;20036;-76
2022/03/27 11:08:17;;;;;;;30.88;11.88;;;;;;;;;;5038404;28;20066;-77
2022/03/27 11:10:49;;;;;;;36.53;12.35;;;;;;;;;;5026905;28;20036;-76
2022/03/27 11:13:27;;;;;;;34.70;11.52;;;;;;;;;;5056636;28;20036;-76
2022/03/27 11:16:14;;;;;;;51.58;12.38;;;;;;;;;;5050059;28;20053;-77
2022/03/27 11:18:41;;;;;;;31.35;12.52;;;;;;;;;;5036937;28;20021;-78
2022/03/27 11:21:14;;;;;;;25.92;11.20;;;;;;;;;;5019419;28;20394;-77
2022/03/27 11:23:40;;;;;;;37.78;13.02;;;;;;;;;;5036731;28;20048;-77
2022/03/27 11:26:21;;;;;;;35.60;13.55;;;;;;;;;;5036686;28;20378;-77
2022/03/27 11:28:54;;;;;;;32.17;13.27;;;;;;;;;;5036233;28;20041;-77
2022/03/27 11:31:33;;;;;;;38.05;12.00;;;;;;;;;;5018503;28;20094;-77
2022/03/27 11:34:05;;;;;;;40.88;11.80;;;;;;;;;;5018456;28;20044;-76
2022/03/27 11:36:31;;;;;;;23.83;10.80;;;;;;;;;;5024530;28;20025;-78
2022/03/27 11:39:02;;;;;;;30.10;10.27;;;;;;;;;;5001432;28;20033;-79
2022/03/27 11:41:42;;;;;;;23.88;10.43;;;;;;;;;;5018373;28;20056;-78
2022/03/27 11:44:23;;;;;;;28.15;10.60;;;;;;;;;;5019934;28;20120;-78
2022/03/27 11:46:56;;;;;;;22.65;9.73;;;;;;;;;;5036202;28;20375;-77
2022/03/27 11:49:38;;;;;;;26.63;9.73;;;;;;;;;;5018294;28;20044;-78
2022/03/27 11:52:21;;;;;;;38.88;11.07;;;;;;;;;;5018732;28;20029;-76
2022/03/27 11:54:47;;;;;;;32.00;10.02;;;;;;;;;;5044452;28;20082;-78
2022/03/27 11:57:13;;;;;;;23.42;9.05;;;;;;;;;;5037000;28;20064;-78
2022/03/27 11:59:49;;;;;;;28.23;9.55;;;;;;;;;;5018109;28;20443;-79
2022/03/27 12:02:15;;;;;;;24.27;8.80;;;;;;;;;;5018126;28;20068;-79
2022/03/27 12:04:54;;;;;;;20.13;9.45;;;;;;;;;;5035658;28;20470;-78
2022/03/27 12:07:22;;;;;;;28.90;10.88;;;;;;;;;;5035584;28;20497;-77
2022/03/27 12:09:58;;;;;;;21.27;9.85;;;;;;;;;;5001860;28;20049;-78
2022/03/27 12:12:24;;;;;;;19.20;9.82;;;;;;;;;;5035957;28;20048;-78
2022/03/27 12:14:54;;;;;;;35.55;11.15;;;;;;;;;;5044660;28;20041;-79
2022/03/27 12:17:20;;;;;;;19.88;11.05;;;;;;;;;;5035756;28;20451;-79
2022/03/27 12:19:59;;;;;;;26.10;10.70;;;;;;;;;;5017913;28;20083;-77
2022/03/27 12:22:33;;;;;;;28.45;10.98;;;;;;;;;;5035312;28;20036;-80
2022/03/27 12:24:59;;;;;;;32.70;10.38;;;;;;;;;;5035149;28;20183;-78
2022/03/27 12:30:09;;;;;;;22.52;9.32;;;;;;;;;;5020273;28;20040;-77
2022/03/27 12:32:36;;;;;;;28.33;8.70;;;;;;;;;;5017378;28;20033;-79
2022/03/27 12:35:02;;;;;;;26.98;8.90;;;;;;;;;;5024942;28;20045;-78
2022/03/27 12:37:29;;;;;;;27.75;8.88;;;;;;;;;;5033909;28;20029;-78
2022/03/27 12:39:54;;;;;;;28.98;8.68;;;;;;;;;;5017310;28;20029;-78
2022/03/27 12:42:29;;;;;;;26.70;8.70;;;;;;;;;;5035285;28;20175;-79
2022/03/27 12:44:54;;;;;;;40.33;10.93;;;;;;;;;;5034949;28;20021;-79
2022/03/27 12:47:33;;;;;;;27.35;8.90;;;;;;;;;;5034903;28;20036;-78
2022/03/27 12:49:59;;;;;;;23.73;7.57;;;;;;;;;;5034730;28;20096;-78
2022/03/27 12:52:24;;;;;;;23.23;7.93;;;;;;;;;;5035530;28;20132;-78
2022/03/27 12:55:04;;;;;;;24.83;8.20;;;;;;;;;;5040766;28;20087;-77
2022/03/27 12:58:00;;;;;;;26.77;9.60;;;;;;;;;;5034977;28;20036;-78
2022/03/27 13:00:31;;;;;;;21.70;9.68;;;;;;;;;;5034924;28;20072;-79
2022/03/27 13:03:15;;;;;;;35.20;11.60;;;;;;;;;;5034467;28;20065;-78
2022/03/27 13:05:43;;;;;;;36.67;12.27;;;;;;;;;;5034597;28;20431;-78
2022/03/27 13:08:09;;;;;;;28.17;12.00;;;;;;;;;;5016613;28;20367;-79
2022/03/27 13:10:37;;;;;;;25.05;10.98;;;;;;;;;;5017135;28;20032;-80
2022/03/27 13:13:13;;;;;;;24.30;10.32;;;;;;;;;;5022404;28;20030;-79
2022/03/27 13:15:41;;;;;;;25.35;10.15;;;;;;;;;;5035678;28;20438;-81
2022/03/27 13:18:17;;;;;;;39.50;10.98;;;;;;;;;;5017040;28;20115;-80
2022/03/27 13:20:46;;;;;;;33.95;11.80;;;;;;;;;;5001830;28;20053;-82
2022/03/27 13:23:12;;;;;;;42.00;11.55;;;;;;;;;;5000316;28;20371;-83
2022/03/27 13:25:39;;;;;;;32.83;12.15;;;;;;;;;;5000403;28;20036;-83
2022/03/27 13:28:04;;;;;;;40.42;12.60;;;;;;;;;;5016821;28;20022;-84
2022/03/27 13:30:30;;;;;;;36.42;13.48;;;;;;;;;;5000254;28;20032;-78
2022/03/27 13:32:57;;;;;;;24.52;13.07;;;;;;;;;;5008143;28;20034;-78
2022/03/27 13:35:23;;;;;;;35.75;14.13;;;;;;;;;;5017639;28;20029;-77
2022/03/27 13:37:51;;;;;;;33.38;14.85;;;;;;;;;;4999812;28;20410;-78
2022/03/27 13:40:16;;;;;;;42.75;15.10;;;;;;;;;;5033754;28;20075;-78
2022/03/27 13:43:00;;;;;;;27.50;13.77;;;;;;;;;;5016180;28;20021;-78
2022/03/27 13:45:27;;;;;;;33.72;13.20;;;;;;;;;;5033912;28;20030;-79
2022/03/27 13:47:53;;;;;;;36.40;14.27;;;;;;;;;;5016160;28;20108;-79
2022/03/27 13:50:18;;;;;;;36.10;14.38;;;;;;;;;;5016383;28;20495;-78
2022/03/27 13:52:44;;;;;;;35.90;13.68;;;;;;;;;;5037533;28;20030;-80
2022/03/27 13:55:09;;;;;;;33.92;13.95;;;;;;;;;;5017872;28;20459;-77
2022/03/27 13:57:35;;;;;;;30.83;13.05;;;;;;;;;;5033670;28;20030;-78
2022/03/27 14:00:00;;;;;;;38.83;13.13;;;;;;;;;;5016362;28;20052;-78
2022/03/27 14:02:26;;;;;;;29.45;13.30;;;;;;;;;;5034116;28;20072;-78
2022/03/27 14:04:52;;;;;;;28.67;12.48;;;;;;;;;;5020341;28;20029;-79
2022/03/27 14:07:18;;;;;;;31.88;13.60;;;;;;;;;;5037533;28;20057;-79
2022/03/27 14:09:46;;;;;;;31.27;13.63;;;;;;;;;;5037679;28;20056;-79
2022/03/27 14:12:12;;;;;;;33.38;15.35;;;;;;;;;;5021399;28;20033;-78
2022/03/27 14:14:37;;;;;;;35.72;16.23;;;;;;;;;;5043169;28;20064;-80
2022/03/27 14:17:03;;;;;;;40.70;16.48;;;;;;;;;;5036465;28;20382;-80
2022/03/27 14:19:29;;;;;;;34.42;14.18;;;;;;;;;;5037695;28;20032;-74
2022/03/27 14:21:56;;;;;;;30.75;13.63;;;;;;;;;;5019826;28;20056;-76
2022/03/27 14:24:22;;;;;;;35.15;13.57;;;;;;;;;;5037687;28;20103;-77
2022/03/27 14:26:47;;;;;;;32.53;12.68;;;;;;;;;;5037416;28;20036;-77
2022/03/27 14:29:13;;;;;;;25.33;11.10;;;;;;;;;;5003537;28;20057;-77